sensor_id;sensor_type;location;lat;lon;timestamp;P1;durP1;ratioP1;P2;durP2;ratioP2
7703;SDS011;3894;49.700;10.770;2023-08-30T00:01:59;4.57;;;0.98;;
7703;SDS011;3894;49.700;10.770;2023-08-30T00:04:27;4.85;;;0.90;;
7703;SDS011;3894;49.700;10.770;2023-08-30T00:06:54;3.40;;;0.80;;
7703;SDS011;3894;49.700;10.770;2023-08-30T00:09:19;3.90;;;1.20;;
7703;SDS011;3894;49.700;10.770;2023-08-30T00:11:45;3.65;;;0.93;;
7703;SDS011;3894;49.700;10.770;2023-08-30T00:14:10;3.63;;;1.15;;
7703;SDS011;3894;49.700;10.770;2023-08-30T00:16:39;4.05;;;1.15;;
7703;SDS011;3894;49.700;10.770;2023-08-30T00:19:06;3.80;;;1.30;;
7703;SDS011;3894;49.700;10.770;2023-08-30T00:21:38;5.68;;;1.35;;
7703;SDS011;3894;49.700;10.770;2023-08-30T00:24:06;4.03;;;1.17;;
7703;SDS011;3894;49.700;10.770;2023-08-30T00:26:32;3.63;;;1.00;;
7703;SDS011;3894;49.700;10.770;2023-08-30T00:28:57;3.50;;;1.02;;
7703;SDS011;3894;49.700;10.770;2023-08-30T00:31:26;4.05;;;1.00;;
7703;SDS011;3894;49.700;10.770;2023-08-30T00:33:52;5.13;;;1.30;;
7703;SDS011;3894;49.700;10.770;2023-08-30T00:36:17;3.25;;;0.93;;
7703;SDS011;3894;49.700;10.770;2023-08-30T00:38:45;3.53;;;1.10;;
7703;SDS011;3894;49.700;10.770;2023-08-30T00:41:14;3.95;;;0.88;;
7703;SDS011;3894;49.700;10.770;2023-08-30T00:43:42;4.78;;;1.40;;
7703;SDS011;3894;49.700;10.770;2023-08-30T00:46:08;3.83;;;1.42;;
7703;SDS011;3894;49.700;10.770;2023-08-30T00:48:34;3.90;;;1.20;;
7703;SDS011;3894;49.700;10.770;2023-08-30T00:51:08;3.58;;;0.93;;
7703;SDS011;3894;49.700;10.770;2023-08-30T00:53:39;4.10;;;1.20;;
7703;SDS011;3894;49.700;10.770;2023-08-30T00:56:21;4.05;;;1.10;;
7703;SDS011;3894;49.700;10.770;2023-08-30T00:58:52;5.72;;;0.90;;
7703;SDS011;3894;49.700;10.770;2023-08-30T01:01:18;4.30;;;1.10;;
7703;SDS011;3894;49.700;10.770;2023-08-30T01:03:53;4.63;;;1.00;;
7703;SDS011;3894;49.700;10.770;2023-08-30T01:06:19;5.63;;;1.00;;
7703;SDS011;3894;49.700;10.770;2023-08-30T01:08:45;4.35;;;0.98;;
7703;SDS011;3894;49.700;10.770;2023-08-30T01:11:16;3.78;;;1.25;;
7703;SDS011;3894;49.700;10.770;2023-08-30T01:14:00;4.43;;;1.30;;
7703;SDS011;3894;49.700;10.770;2023-08-30T01:16:26;3.80;;;1.20;;
7703;SDS011;3894;49.700;10.770;2023-08-30T01:18:55;6.68;;;1.35;;
7703;SDS011;3894;49.700;10.770;2023-08-30T01:21:30;3.70;;;1.00;;
7703;SDS011;3894;49.700;10.770;2023-08-30T01:24:05;4.70;;;1.52;;
7703;SDS011;3894;49.700;10.770;2023-08-30T01:26:42;4.78;;;1.90;;
7703;SDS011;3894;49.700;10.770;2023-08-30T01:29:22;4.07;;;1.40;;
7703;SDS011;3894;49.700;10.770;2023-08-30T01:31:48;4.38;;;1.50;;
7703;SDS011;3894;49.700;10.770;2023-08-30T01:34:15;4.45;;;1.17;;
7703;SDS011;3894;49.700;10.770;2023-08-30T01:36:41;4.78;;;1.65;;
7703;SDS011;3894;49.700;10.770;2023-08-30T01:39:14;4.70;;;1.77;;
7703;SDS011;3894;49.700;10.770;2023-08-30T01:41:41;5.60;;;1.95;;
7703;SDS011;3894;49.700;10.770;2023-08-30T01:44:07;4.85;;;2.03;;
7703;SDS011;3894;49.700;10.770;2023-08-30T01:46:37;5.53;;;1.77;;
7703;SDS011;3894;49.700;10.770;2023-08-30T01:49:04;5.28;;;1.70;;
7703;SDS011;3894;49.700;10.770;2023-08-30T01:51:37;5.25;;;1.77;;
7703;SDS011;3894;49.700;10.770;2023-08-30T01:54:07;4.82;;;1.75;;
7703;SDS011;3894;49.700;10.770;2023-08-30T01:56:41;3.67;;;1.23;;
7703;SDS011;3894;49.700;10.770;2023-08-30T01:59:09;6.07;;;2.03;;
7703;SDS011;3894;49.700;10.770;2023-08-30T02:01:35;4.85;;;1.38;;
7703;SDS011;3894;49.700;10.770;2023-08-30T02:04:01;4.00;;;1.20;;
7703;SDS011;3894;49.700;10.770;2023-08-30T02:06:29;6.57;;;1.55;;
7703;SDS011;3894;49.700;10.770;2023-08-30T02:09:04;5.32;;;1.35;;
7703;SDS011;3894;49.700;10.770;2023-08-30T02:11:41;3.72;;;1.15;;
7703;SDS011;3894;49.700;10.770;2023-08-30T02:14:11;4.53;;;1.38;;
7703;SDS011;3894;49.700;10.770;2023-08-30T02:16:42;3.85;;;1.45;;
7703;SDS011;3894;49.700;10.770;2023-08-30T02:19:10;3.90;;;1.30;;
7703;SDS011;3894;49.700;10.770;2023-08-30T02:24:05;4.45;;;1.70;;
7703;SDS011;3894;49.700;10.770;2023-08-30T02:26:31;4.72;;;1.40;;
7703;SDS011;3894;49.700;10.770;2023-08-30T02:28:57;5.20;;;1.70;;
7703;SDS011;3894;49.700;10.770;2023-08-30T02:31:25;5.70;;;1.70;;
7703;SDS011;3894;49.700;10.770;2023-08-30T02:33:50;5.60;;;1.40;;
7703;SDS011;3894;49.700;10.770;2023-08-30T02:36:16;6.78;;;3.13;;
7703;SDS011;3894;49.700;10.770;2023-08-30T02:38:42;6.50;;;2.00;;
7703;SDS011;3894;49.700;10.770;2023-08-30T02:41:07;5.97;;;2.08;;
7703;SDS011;3894;49.700;10.770;2023-08-30T02:43:35;4.80;;;2.08;;
7703;SDS011;3894;49.700;10.770;2023-08-30T02:46:00;6.25;;;2.92;;
7703;SDS011;3894;49.700;10.770;2023-08-30T02:48:28;5.53;;;2.60;;
7703;SDS011;3894;49.700;10.770;2023-08-30T02:50:54;4.45;;;1.42;;
7703;SDS011;3894;49.700;10.770;2023-08-30T02:53:20;5.03;;;1.90;;
7703;SDS011;3894;49.700;10.770;2023-08-30T02:55:46;6.95;;;2.35;;
7703;SDS011;3894;49.700;10.770;2023-08-30T02:58:13;5.40;;;2.10;;
7703;SDS011;3894;49.700;10.770;2023-08-30T03:00:41;5.35;;;2.45;;
7703;SDS011;3894;49.700;10.770;2023-08-30T03:03:13;5.43;;;2.22;;
7703;SDS011;3894;49.700;10.770;2023-08-30T03:05:41;7.10;;;3.58;;
7703;SDS011;3894;49.700;10.770;2023-08-30T03:08:06;5.72;;;2.53;;
7703;SDS011;3894;49.700;10.770;2023-08-30T03:10:32;5.72;;;2.80;;
7703;SDS011;3894;49.700;10.770;2023-08-30T03:12:58;5.57;;;2.42;;
7703;SDS011;3894;49.700;10.770;2023-08-30T03:15:25;5.38;;;2.33;;
7703;SDS011;3894;49.700;10.770;2023-08-30T03:17:51;5.82;;;2.63;;
7703;SDS011;3894;49.700;10.770;2023-08-30T03:20:24;5.38;;;2.53;;
7703;SDS011;3894;49.700;10.770;2023-08-30T03:22:52;5.50;;;2.88;;
7703;SDS011;3894;49.700;10.770;2023-08-30T03:25:18;5.30;;;2.40;;
7703;SDS011;3894;49.700;10.770;2023-08-30T03:27:46;5.78;;;2.83;;
7703;SDS011;3894;49.700;10.770;2023-08-30T03:30:12;6.68;;;2.72;;
7703;SDS011;3894;49.700;10.770;2023-08-30T03:32:47;8.40;;;2.47;;
7703;SDS011;3894;49.700;10.770;2023-08-30T03:35:12;5.00;;;2.08;;
7703;SDS011;3894;49.700;10.770;2023-08-30T03:37:41;6.15;;;2.13;;
7703;SDS011;3894;49.700;10.770;2023-08-30T03:40:09;4.95;;;1.85;;
7703;SDS011;3894;49.700;10.770;2023-08-30T03:42:35;6.07;;;2.35;;
7703;SDS011;3894;49.700;10.770;2023-08-30T03:45:01;4.53;;;1.98;;
7703;SDS011;3894;49.700;10.770;2023-08-30T03:47:29;6.03;;;3.00;;
7703;SDS011;3894;49.700;10.770;2023-08-30T03:49:58;5.20;;;2.00;;
7703;SDS011;3894;49.700;10.770;2023-08-30T03:52:30;5.80;;;2.47;;
7703;SDS011;3894;49.700;10.770;2023-08-30T03:54:58;8.07;;;2.35;;
7703;SDS011;3894;49.700;10.770;2023-08-30T03:57:24;7.40;;;2.92;;
7703;SDS011;3894;49.700;10.770;2023-08-30T03:59:49;6.78;;;3.00;;
7703;SDS011;3894;49.700;10.770;2023-08-30T04:02:20;4.90;;;2.05;;
7703;SDS011;3894;49.700;10.770;2023-08-30T04:04:46;5.10;;;2.03;;
7703;SDS011;3894;49.700;10.770;2023-08-30T04:07:18;5.82;;;1.92;;
7703;SDS011;3894;49.700;10.770;2023-08-30T04:09:44;4.95;;;2.03;;
7703;SDS011;3894;49.700;10.770;2023-08-30T04:12:09;7.85;;;2.15;;
7703;SDS011;3894;49.700;10.770;2023-08-30T04:14:35;5.05;;;2.10;;
7703;SDS011;3894;49.700;10.770;2023-08-30T04:17:08;6.28;;;2.03;;
7703;SDS011;3894;49.700;10.770;2023-08-30T04:19:36;7.93;;;2.63;;
7703;SDS011;3894;49.700;10.770;2023-08-30T04:22:04;6.03;;;2.95;;
7703;SDS011;3894;49.700;10.770;2023-08-30T04:24:36;6.32;;;2.72;;
7703;SDS011;3894;49.700;10.770;2023-08-30T04:27:01;6.18;;;2.63;;
7703;SDS011;3894;49.700;10.770;2023-08-30T04:29:33;6.32;;;2.53;;
7703;SDS011;3894;49.700;10.770;2023-08-30T04:31:58;6.85;;;3.03;;
7703;SDS011;3894;49.700;10.770;2023-08-30T04:36:55;7.40;;;3.20;;
7703;SDS011;3894;49.700;10.770;2023-08-30T04:39:26;7.43;;;3.17;;
7703;SDS011;3894;49.700;10.770;2023-08-30T04:41:57;6.65;;;2.47;;
7703;SDS011;3894;49.700;10.770;2023-08-30T04:44:22;6.90;;;2.70;;
7703;SDS011;3894;49.700;10.770;2023-08-30T04:46:49;9.93;;;3.30;;
7703;SDS011;3894;49.700;10.770;2023-08-30T04:49:17;7.38;;;2.53;;
7703;SDS011;3894;49.700;10.770;2023-08-30T04:51:42;6.65;;;2.67;;
7703;SDS011;3894;49.700;10.770;2023-08-30T04:54:08;5.57;;;2.50;;
7703;SDS011;3894;49.700;10.770;2023-08-30T04:56:40;5.60;;;2.35;;
7703;SDS011;3894;49.700;10.770;2023-08-30T04:59:08;7.13;;;2.67;;
7703;SDS011;3894;49.700;10.770;2023-08-30T05:01:36;5.10;;;2.13;;
7703;SDS011;3894;49.700;10.770;2023-08-30T05:04:10;4.93;;;2.20;;
7703;SDS011;3894;49.700;10.770;2023-08-30T05:06:36;5.40;;;2.15;;
7703;SDS011;3894;49.700;10.770;2023-08-30T05:09:04;5.28;;;2.28;;
7703;SDS011;3894;49.700;10.770;2023-08-30T05:11:30;6.63;;;2.42;;
7703;SDS011;3894;49.700;10.770;2023-08-30T05:13:58;8.55;;;2.95;;
7703;SDS011;3894;49.700;10.770;2023-08-30T05:16:37;6.78;;;2.78;;
7703;SDS011;3894;49.700;10.770;2023-08-30T05:19:04;5.72;;;2.38;;
7703;SDS011;3894;49.700;10.770;2023-08-30T05:21:30;5.78;;;2.30;;
7703;SDS011;3894;49.700;10.770;2023-08-30T05:23:55;8.80;;;3.45;;
7703;SDS011;3894;49.700;10.770;2023-08-30T05:26:24;8.93;;;3.22;;
7703;SDS011;3894;49.700;10.770;2023-08-30T05:28:50;12.13;;;4.03;;
7703;SDS011;3894;49.700;10.770;2023-08-30T05:31:15;8.73;;;4.38;;
7703;SDS011;3894;49.700;10.770;2023-08-30T05:33:44;10.35;;;4.75;;
7703;SDS011;3894;49.700;10.770;2023-08-30T05:36:12;12.32;;;4.55;;
7703;SDS011;3894;49.700;10.770;2023-08-30T05:38:37;10.63;;;4.82;;
7703;SDS011;3894;49.700;10.770;2023-08-30T05:41:03;12.38;;;6.03;;
7703;SDS011;3894;49.700;10.770;2023-08-30T05:43:37;12.48;;;5.55;;
7703;SDS011;3894;49.700;10.770;2023-08-30T05:46:02;15.63;;;6.93;;
7703;SDS011;3894;49.700;10.770;2023-08-30T05:48:28;14.48;;;5.97;;
7703;SDS011;3894;49.700;10.770;2023-08-30T05:50:55;15.60;;;6.38;;
7703;SDS011;3894;49.700;10.770;2023-08-30T05:53:23;16.80;;;6.60;;
7703;SDS011;3894;49.700;10.770;2023-08-30T05:55:48;17.73;;;7.32;;
7703;SDS011;3894;49.700;10.770;2023-08-30T05:58:14;20.52;;;8.15;;
7703;SDS011;3894;49.700;10.770;2023-08-30T06:00:41;20.45;;;8.55;;
7703;SDS011;3894;49.700;10.770;2023-08-30T06:03:07;19.25;;;8.77;;
7703;SDS011;3894;49.700;10.770;2023-08-30T06:05:33;16.63;;;7.30;;
7703;SDS011;3894;49.700;10.770;2023-08-30T06:07:59;15.82;;;7.80;;
7703;SDS011;3894;49.700;10.770;2023-08-30T06:10:33;15.07;;;6.78;;
7703;SDS011;3894;49.700;10.770;2023-08-30T06:12:58;16.98;;;8.88;;
7703;SDS011;3894;49.700;10.770;2023-08-30T06:15:27;14.38;;;8.18;;
7703;SDS011;3894;49.700;10.770;2023-08-30T06:17:53;16.33;;;8.23;;
7703;SDS011;3894;49.700;10.770;2023-08-30T06:20:19;17.02;;;9.02;;
7703;SDS011;3894;49.700;10.770;2023-08-30T06:22:45;18.83;;;8.80;;
7703;SDS011;3894;49.700;10.770;2023-08-30T06:25:10;19.02;;;10.18;;
7703;SDS011;3894;49.700;10.770;2023-08-30T06:27:41;19.45;;;9.02;;
7703;SDS011;3894;49.700;10.770;2023-08-30T06:30:20;22.10;;;10.32;;
7703;SDS011;3894;49.700;10.770;2023-08-30T06:32:49;21.27;;;9.48;;
7703;SDS011;3894;49.700;10.770;2023-08-30T06:35:17;19.27;;;9.60;;
7703;SDS011;3894;49.700;10.770;2023-08-30T06:37:43;16.55;;;8.80;;
7703;SDS011;3894;49.700;10.770;2023-08-30T06:40:09;19.38;;;8.57;;
7703;SDS011;3894;49.700;10.770;2023-08-30T06:42:35;22.98;;;10.75;;
7703;SDS011;3894;49.700;10.770;2023-08-30T06:45:03;21.80;;;10.50;;
7703;SDS011;3894;49.700;10.770;2023-08-30T06:47:29;16.65;;;8.68;;
7703;SDS011;3894;49.700;10.770;2023-08-30T06:49:55;18.80;;;8.77;;
7703;SDS011;3894;49.700;10.770;2023-08-30T06:52:21;19.95;;;10.55;;
7703;SDS011;3894;49.700;10.770;2023-08-30T06:54:46;19.52;;;8.63;;
7703;SDS011;3894;49.700;10.770;2023-08-30T06:57:12;16.58;;;8.95;;
7703;SDS011;3894;49.700;10.770;2023-08-30T06:59:38;15.13;;;8.27;;
7703;SDS011;3894;49.700;10.770;2023-08-30T07:02:03;17.75;;;9.43;;
7703;SDS011;3894;49.700;10.770;2023-08-30T07:04:32;15.30;;;7.85;;
7703;SDS011;3894;49.700;10.770;2023-08-30T07:06:58;20.00;;;9.75;;
7703;SDS011;3894;49.700;10.770;2023-08-30T07:09:26;21.55;;;8.88;;
7703;SDS011;3894;49.700;10.770;2023-08-30T07:11:57;19.60;;;10.85;;
7703;SDS011;3894;49.700;10.770;2023-08-30T07:14:23;18.17;;;9.70;;
7703;SDS011;3894;49.700;10.770;2023-08-30T07:16:51;18.23;;;9.60;;
7703;SDS011;3894;49.700;10.770;2023-08-30T07:19:16;17.90;;;9.38;;
7703;SDS011;3894;49.700;10.770;2023-08-30T07:21:42;14.80;;;8.15;;
7703;SDS011;3894;49.700;10.770;2023-08-30T07:24:11;17.65;;;9.63;;
7703;SDS011;3894;49.700;10.770;2023-08-30T07:26:37;18.65;;;10.40;;
7703;SDS011;3894;49.700;10.770;2023-08-30T07:29:03;17.48;;;10.18;;
7703;SDS011;3894;49.700;10.770;2023-08-30T07:31:30;17.20;;;10.07;;
7703;SDS011;3894;49.700;10.770;2023-08-30T07:33:56;17.27;;;9.68;;
7703;SDS011;3894;49.700;10.770;2023-08-30T07:36:24;16.05;;;9.10;;
7703;SDS011;3894;49.700;10.770;2023-08-30T07:38:50;19.15;;;10.38;;
7703;SDS011;3894;49.700;10.770;2023-08-30T07:41:16;15.65;;;8.82;;
7703;SDS011;3894;49.700;10.770;2023-08-30T07:43:42;16.70;;;10.07;;
7703;SDS011;3894;49.700;10.770;2023-08-30T07:46:10;18.60;;;9.85;;
7703;SDS011;3894;49.700;10.770;2023-08-30T07:48:40;15.35;;;8.77;;
7703;SDS011;3894;49.700;10.770;2023-08-30T07:51:05;16.30;;;9.18;;
7703;SDS011;3894;49.700;10.770;2023-08-30T07:53:31;18.90;;;11.02;;
7703;SDS011;3894;49.700;10.770;2023-08-30T07:55:56;15.90;;;9.85;;
7703;SDS011;3894;49.700;10.770;2023-08-30T07:58:22;17.00;;;9.77;;
7703;SDS011;3894;49.700;10.770;2023-08-30T08:00:52;16.60;;;9.85;;
7703;SDS011;3894;49.700;10.770;2023-08-30T08:03:23;18.45;;;10.50;;
7703;SDS011;3894;49.700;10.770;2023-08-30T08:05:48;17.23;;;9.38;;
7703;SDS011;3894;49.700;10.770;2023-08-30T08:08:16;16.25;;;9.15;;
7703;SDS011;3894;49.700;10.770;2023-08-30T08:10:42;17.02;;;10.50;;
7703;SDS011;3894;49.700;10.770;2023-08-30T08:13:18;17.58;;;10.50;;
7703;SDS011;3894;49.700;10.770;2023-08-30T08:15:44;17.00;;;9.98;;
7703;SDS011;3894;49.700;10.770;2023-08-30T08:18:10;17.33;;;9.88;;
7703;SDS011;3894;49.700;10.770;2023-08-30T08:20:35;18.25;;;10.07;;
7703;SDS011;3894;49.700;10.770;2023-08-30T08:23:01;16.55;;;10.45;;
7703;SDS011;3894;49.700;10.770;2023-08-30T08:25:31;17.10;;;9.05;;
7703;SDS011;3894;49.700;10.770;2023-08-30T08:27:56;17.38;;;10.35;;
7703;SDS011;3894;49.700;10.770;2023-08-30T08:30:22;14.70;;;10.05;;
7703;SDS011;3894;49.700;10.770;2023-08-30T08:32:47;15.07;;;8.73;;
7703;SDS011;3894;49.700;10.770;2023-08-30T08:35:13;14.75;;;8.07;;
7703;SDS011;3894;49.700;10.770;2023-08-30T08:37:39;16.13;;;9.27;;
7703;SDS011;3894;49.700;10.770;2023-08-30T08:40:08;15.68;;;9.25;;
7703;SDS011;3894;49.700;10.770;2023-08-30T08:42:34;16.73;;;9.65;;
7703;SDS011;3894;49.700;10.770;2023-08-30T08:45:01;16.75;;;8.95;;
7703;SDS011;3894;49.700;10.770;2023-08-30T08:47:28;17.60;;;9.15;;
7703;SDS011;3894;49.700;10.770;2023-08-30T08:49:56;15.57;;;7.82;;
7703;SDS011;3894;49.700;10.770;2023-08-30T08:52:23;13.50;;;8.25;;
7703;SDS011;3894;49.700;10.770;2023-08-30T08:54:49;17.95;;;8.98;;
7703;SDS011;3894;49.700;10.770;2023-08-30T08:57:16;15.70;;;8.75;;
7703;SDS011;3894;49.700;10.770;2023-08-30T08:59:42;16.48;;;9.73;;
7703;SDS011;3894;49.700;10.770;2023-08-30T09:02:11;13.63;;;8.13;;
7703;SDS011;3894;49.700;10.770;2023-08-30T09:04:42;15.82;;;8.45;;
7703;SDS011;3894;49.700;10.770;2023-08-30T09:07:07;18.58;;;9.43;;
7703;SDS011;3894;49.700;10.770;2023-08-30T09:09:33;14.80;;;8.10;;
7703;SDS011;3894;49.700;10.770;2023-08-30T09:12:01;13.45;;;7.85;;
7703;SDS011;3894;49.700;10.770;2023-08-30T09:14:30;13.93;;;7.15;;
7703;SDS011;3894;49.700;10.770;2023-08-30T09:16:57;14.80;;;8.50;;
7703;SDS011;3894;49.700;10.770;2023-08-30T09:19:24;13.55;;;7.70;;
7703;SDS011;3894;49.700;10.770;2023-08-30T09:21:53;14.90;;;8.02;;
7703;SDS011;3894;49.700;10.770;2023-08-30T09:24:19;13.57;;;7.97;;
7703;SDS011;3894;49.700;10.770;2023-08-30T09:26:50;13.25;;;8.15;;
7703;SDS011;3894;49.700;10.770;2023-08-30T09:29:20;14.45;;;8.63;;
7703;SDS011;3894;49.700;10.770;2023-08-30T09:31:50;15.65;;;9.60;;
7703;SDS011;3894;49.700;10.770;2023-08-30T09:34:21;15.02;;;8.82;;
7703;SDS011;3894;49.700;10.770;2023-08-30T09:36:49;17.67;;;9.02;;
7703;SDS011;3894;49.700;10.770;2023-08-30T09:39:15;13.60;;;7.20;;
7703;SDS011;3894;49.700;10.770;2023-08-30T09:41:44;14.32;;;8.23;;
7703;SDS011;3894;49.700;10.770;2023-08-30T09:44:14;14.15;;;8.15;;
7703;SDS011;3894;49.700;10.770;2023-08-30T09:49:24;12.23;;;7.50;;
7703;SDS011;3894;49.700;10.770;2023-08-30T09:51:51;14.80;;;7.60;;
7703;SDS011;3894;49.700;10.770;2023-08-30T09:54:21;12.73;;;6.38;;
7703;SDS011;3894;49.700;10.770;2023-08-30T09:56:51;10.75;;;6.22;;
7703;SDS011;3894;49.700;10.770;2023-08-30T09:59:18;10.93;;;5.95;;
7703;SDS011;3894;49.700;10.770;2023-08-30T10:01:44;14.80;;;7.72;;
7703;SDS011;3894;49.700;10.770;2023-08-30T10:04:13;14.27;;;8.73;;
7703;SDS011;3894;49.700;10.770;2023-08-30T10:06:40;10.15;;;5.80;;
7703;SDS011;3894;49.700;10.770;2023-08-30T10:09:10;13.77;;;7.95;;
7703;SDS011;3894;49.700;10.770;2023-08-30T10:11:36;11.50;;;7.53;;
7703;SDS011;3894;49.700;10.770;2023-08-30T10:14:07;13.13;;;8.35;;
7703;SDS011;3894;49.700;10.770;2023-08-30T10:16:46;11.10;;;6.22;;
7703;SDS011;3894;49.700;10.770;2023-08-30T10:19:23;13.00;;;7.68;;
7703;SDS011;3894;49.700;10.770;2023-08-30T10:21:57;10.25;;;6.22;;
7703;SDS011;3894;49.700;10.770;2023-08-30T10:24:32;10.93;;;6.10;;
7703;SDS011;3894;49.700;10.770;2023-08-30T10:27:03;11.27;;;7.28;;
7703;SDS011;3894;49.700;10.770;2023-08-30T10:29:32;12.10;;;7.40;;
7703;SDS011;3894;49.700;10.770;2023-08-30T10:32:05;10.75;;;6.22;;
7703;SDS011;3894;49.700;10.770;2023-08-30T10:34:35;11.63;;;6.90;;
7703;SDS011;3894;49.700;10.770;2023-08-30T10:37:06;11.57;;;6.53;;
7703;SDS011;3894;49.700;10.770;2023-08-30T10:39:34;10.25;;;6.38;;
7703;SDS011;3894;49.700;10.770;2023-08-30T10:42:07;12.38;;;7.00;;
7703;SDS011;3894;49.700;10.770;2023-08-30T10:44:34;11.23;;;6.53;;
7703;SDS011;3894;49.700;10.770;2023-08-30T10:47:01;11.02;;;5.60;;
7703;SDS011;3894;49.700;10.770;2023-08-30T10:49:29;8.52;;;4.63;;
7703;SDS011;3894;49.700;10.770;2023-08-30T10:52:06;7.20;;;4.57;;
7703;SDS011;3894;49.700;10.770;2023-08-30T10:54:37;9.68;;;4.38;;
7703;SDS011;3894;49.700;10.770;2023-08-30T10:57:12;7.88;;;4.80;;
7703;SDS011;3894;49.700;10.770;2023-08-30T11:02:32;8.75;;;3.78;;
7703;SDS011;3894;49.700;10.770;2023-08-30T11:04:58;6.97;;;3.65;;
7703;SDS011;3894;49.700;10.770;2023-08-30T11:07:25;7.47;;;3.30;;
7703;SDS011;3894;49.700;10.770;2023-08-30T11:09:52;6.65;;;3.70;;
7703;SDS011;3894;49.700;10.770;2023-08-30T11:12:20;7.03;;;3.78;;
7703;SDS011;3894;49.700;10.770;2023-08-30T11:14:51;7.22;;;3.60;;
7703;SDS011;3894;49.700;10.770;2023-08-30T11:17:17;6.60;;;3.55;;
7703;SDS011;3894;49.700;10.770;2023-08-30T11:19:46;8.07;;;3.60;;
7703;SDS011;3894;49.700;10.770;2023-08-30T11:22:14;8.07;;;4.00;;
7703;SDS011;3894;49.700;10.770;2023-08-30T11:24:41;7.20;;;3.95;;
7703;SDS011;3894;49.700;10.770;2023-08-30T11:27:09;7.63;;;4.10;;
7703;SDS011;3894;49.700;10.770;2023-08-30T11:29:35;8.73;;;4.30;;
7703;SDS011;3894;49.700;10.770;2023-08-30T11:32:04;7.90;;;4.50;;
7703;SDS011;3894;49.700;10.770;2023-08-30T11:34:32;7.30;;;3.92;;
7703;SDS011;3894;49.700;10.770;2023-08-30T11:36:58;7.93;;;3.83;;
7703;SDS011;3894;49.700;10.770;2023-08-30T11:39:24;9.80;;;4.38;;
7703;SDS011;3894;49.700;10.770;2023-08-30T11:41:54;7.45;;;3.78;;
7703;SDS011;3894;49.700;10.770;2023-08-30T11:44:28;9.50;;;3.50;;
7703;SDS011;3894;49.700;10.770;2023-08-30T11:47:00;7.47;;;3.67;;
7703;SDS011;3894;49.700;10.770;2023-08-30T11:49:29;8.30;;;3.72;;
7703;SDS011;3894;49.700;10.770;2023-08-30T11:51:57;6.72;;;3.28;;
7703;SDS011;3894;49.700;10.770;2023-08-30T11:54:27;7.43;;;3.72;;
7703;SDS011;3894;49.700;10.770;2023-08-30T11:56:53;6.65;;;4.05;;
7703;SDS011;3894;49.700;10.770;2023-08-30T11:59:19;7.53;;;4.18;;
7703;SDS011;3894;49.700;10.770;2023-08-30T12:01:48;7.00;;;3.80;;
7703;SDS011;3894;49.700;10.770;2023-08-30T12:04:17;7.72;;;4.18;;
7703;SDS011;3894;49.700;10.770;2023-08-30T12:06:43;7.13;;;4.22;;
7703;SDS011;3894;49.700;10.770;2023-08-30T12:09:15;7.20;;;3.85;;
7703;SDS011;3894;49.700;10.770;2023-08-30T12:11:44;8.38;;;4.22;;
7703;SDS011;3894;49.700;10.770;2023-08-30T12:14:10;8.20;;;4.07;;
7703;SDS011;3894;49.700;10.770;2023-08-30T12:16:35;7.38;;;3.90;;
7703;SDS011;3894;49.700;10.770;2023-08-30T12:19:08;7.25;;;3.78;;
7703;SDS011;3894;49.700;10.770;2023-08-30T12:21:46;8.70;;;4.50;;
7703;SDS011;3894;49.700;10.770;2023-08-30T12:24:12;6.65;;;4.00;;
7703;SDS011;3894;49.700;10.770;2023-08-30T12:26:38;8.50;;;4.20;;
7703;SDS011;3894;49.700;10.770;2023-08-30T12:29:04;7.22;;;3.50;;
7703;SDS011;3894;49.700;10.770;2023-08-30T12:31:31;6.25;;;2.63;;
7703;SDS011;3894;49.700;10.770;2023-08-30T12:34:00;8.98;;;3.30;;
7703;SDS011;3894;49.700;10.770;2023-08-30T12:36:28;6.18;;;3.40;;
7703;SDS011;3894;49.700;10.770;2023-08-30T12:38:54;6.50;;;3.58;;
7703;SDS011;3894;49.700;10.770;2023-08-30T12:41:22;6.38;;;3.17;;
7703;SDS011;3894;49.700;10.770;2023-08-30T12:43:48;6.75;;;3.53;;
7703;SDS011;3894;49.700;10.770;2023-08-30T12:46:15;6.70;;;3.40;;
7703;SDS011;3894;49.700;10.770;2023-08-30T12:48:43;7.50;;;3.75;;
7703;SDS011;3894;49.700;10.770;2023-08-30T12:51:09;6.40;;;3.47;;
7703;SDS011;3894;49.700;10.770;2023-08-30T12:53:38;6.88;;;3.35;;
7703;SDS011;3894;49.700;10.770;2023-08-30T12:56:04;8.98;;;3.67;;
7703;SDS011;3894;49.700;10.770;2023-08-30T12:58:29;6.32;;;3.03;;
7703;SDS011;3894;49.700;10.770;2023-08-30T13:00:55;6.65;;;3.42;;
7703;SDS011;3894;49.700;10.770;2023-08-30T13:03:21;5.40;;;2.85;;
7703;SDS011;3894;49.700;10.770;2023-08-30T13:05:49;4.75;;;2.05;;
7703;SDS011;3894;49.700;10.770;2023-08-30T13:08:14;6.55;;;2.45;;
7703;SDS011;3894;49.700;10.770;2023-08-30T13:10:40;4.90;;;2.30;;
7703;SDS011;3894;49.700;10.770;2023-08-30T13:13:05;5.65;;;2.38;;
7703;SDS011;3894;49.700;10.770;2023-08-30T13:15:31;5.30;;;2.33;;
7703;SDS011;3894;49.700;10.770;2023-08-30T13:17:57;4.80;;;2.30;;
7703;SDS011;3894;49.700;10.770;2023-08-30T13:20:28;4.50;;;2.33;;
7703;SDS011;3894;49.700;10.770;2023-08-30T13:22:54;7.10;;;2.67;;
7703;SDS011;3894;49.700;10.770;2023-08-30T13:25:19;4.63;;;2.25;;
7703;SDS011;3894;49.700;10.770;2023-08-30T13:27:47;5.80;;;2.25;;
7703;SDS011;3894;49.700;10.770;2023-08-30T13:30:13;5.25;;;2.22;;
7703;SDS011;3894;49.700;10.770;2023-08-30T13:32:39;4.45;;;1.45;;
7703;SDS011;3894;49.700;10.770;2023-08-30T13:35:05;6.57;;;1.77;;
7703;SDS011;3894;49.700;10.770;2023-08-30T13:37:30;4.85;;;1.23;;
7703;SDS011;3894;49.700;10.770;2023-08-30T13:39:56;4.25;;;1.77;;
7703;SDS011;3894;49.700;10.770;2023-08-30T13:42:22;4.68;;;1.60;;
7703;SDS011;3894;49.700;10.770;2023-08-30T13:44:49;4.13;;;1.63;;
7703;SDS011;3894;49.700;10.770;2023-08-30T13:47:15;4.90;;;1.77;;
7703;SDS011;3894;49.700;10.770;2023-08-30T13:49:41;4.65;;;1.58;;
7703;SDS011;3894;49.700;10.770;2023-08-30T13:52:13;5.82;;;2.17;;
7703;SDS011;3894;49.700;10.770;2023-08-30T13:54:38;5.00;;;1.73;;
7703;SDS011;3894;49.700;10.770;2023-08-30T13:57:04;4.35;;;2.00;;
7703;SDS011;3894;49.700;10.770;2023-08-30T13:59:30;5.93;;;1.95;;
7703;SDS011;3894;49.700;10.770;2023-08-30T14:01:55;5.38;;;2.15;;
7703;SDS011;3894;49.700;10.770;2023-08-30T14:04:23;5.63;;;1.85;;
7703;SDS011;3894;49.700;10.770;2023-08-30T14:06:50;4.32;;;1.58;;
7703;SDS011;3894;49.700;10.770;2023-08-30T14:09:16;4.93;;;2.00;;
7703;SDS011;3894;49.700;10.770;2023-08-30T14:11:41;4.57;;;1.73;;
7703;SDS011;3894;49.700;10.770;2023-08-30T14:14:10;4.85;;;1.67;;
7703;SDS011;3894;49.700;10.770;2023-08-30T14:16:36;5.22;;;1.40;;
7703;SDS011;3894;49.700;10.770;2023-08-30T14:19:02;5.20;;;1.48;;
7703;SDS011;3894;49.700;10.770;2023-08-30T14:21:31;5.07;;;1.45;;
7703;SDS011;3894;49.700;10.770;2023-08-30T14:23:59;5.53;;;1.75;;
7703;SDS011;3894;49.700;10.770;2023-08-30T14:26:25;6.65;;;1.77;;
7703;SDS011;3894;49.700;10.770;2023-08-30T14:28:51;6.18;;;2.40;;
7703;SDS011;3894;49.700;10.770;2023-08-30T14:31:17;6.88;;;2.30;;
7703;SDS011;3894;49.700;10.770;2023-08-30T14:33:45;4.35;;;1.60;;
7703;SDS011;3894;49.700;10.770;2023-08-30T14:36:11;4.28;;;1.63;;
7703;SDS011;3894;49.700;10.770;2023-08-30T14:38:37;4.20;;;1.60;;
7703;SDS011;3894;49.700;10.770;2023-08-30T14:41:06;4.57;;;1.50;;
7703;SDS011;3894;49.700;10.770;2023-08-30T14:43:32;4.30;;;1.60;;
7703;SDS011;3894;49.700;10.770;2023-08-30T14:45:58;7.53;;;2.40;;
7703;SDS011;3894;49.700;10.770;2023-08-30T14:48:30;4.57;;;1.67;;
7703;SDS011;3894;49.700;10.770;2023-08-30T14:50:59;4.35;;;1.50;;
7703;SDS011;3894;49.700;10.770;2023-08-30T14:53:25;4.63;;;1.67;;
7703;SDS011;3894;49.700;10.770;2023-08-30T14:55:51;4.45;;;1.67;;
7703;SDS011;3894;49.700;10.770;2023-08-30T14:58:16;11.13;;;6.18;;
7703;SDS011;3894;49.700;10.770;2023-08-30T15:00:47;4.72;;;1.73;;
7703;SDS011;3894;49.700;10.770;2023-08-30T15:03:15;3.90;;;1.60;;
7703;SDS011;3894;49.700;10.770;2023-08-30T15:05:51;4.47;;;1.58;;
7703;SDS011;3894;49.700;10.770;2023-08-30T15:08:21;5.65;;;2.88;;
7703;SDS011;3894;49.700;10.770;2023-08-30T15:10:48;4.10;;;1.50;;